createdAt,value
2022-12-01T00:03:37.909Z,4.80
2022-12-01T00:08:41.137Z,4.80
2022-12-01T00:13:42.809Z,4.70
2022-12-01T00:18:44.913Z,4.60
2022-12-01T00:23:50.187Z,4.60
2022-12-01T00:28:53.408Z,4.60
2022-12-01T00:33:55.466Z,4.50
2022-12-01T00:38:58.616Z,4.50
2022-12-01T00:44:00.305Z,4.30
2022-12-01T00:49:02.066Z,4.30
2022-12-01T00:54:05.235Z,4.30
2022-12-01T00:59:10.206Z,4.30
2022-12-01T01:04:11.815Z,4.40
2022-12-01T01:09:15.649Z,4.30
2022-12-01T01:14:17.395Z,4.30
2022-12-01T01:19:19.167Z,4.30
2022-12-01T01:24:22.257Z,4.40
2022-12-01T01:29:24.061Z,4.30
2022-12-01T01:34:25.866Z,4.30
2022-12-01T01:39:29.145Z,4.30
2022-12-01T01:44:50.022Z,4.20
2022-12-01T01:49:53.173Z,4.20
2022-12-01T01:54:56.459Z,4.30
2022-12-01T02:00:01.610Z,4.30
2022-12-01T02:05:06.438Z,4.20
2022-12-01T02:10:12.999Z,4.10
2022-12-01T02:15:23.104Z,4.20
2022-12-01T02:20:51.778Z,4.30
2022-12-01T02:26:10.898Z,4.20
2022-12-01T02:31:16.684Z,4.00
2022-12-01T02:36:26.171Z,4.00
2022-12-01T02:41:32.555Z,4.00
2022-12-01T02:46:39.453Z,4.00
2022-12-01T02:51:43.211Z,3.80
2022-12-01T02:56:45.062Z,4.00
2022-12-01T03:02:00.564Z,4.00
2022-12-01T03:07:11.319Z,4.00
2022-12-01T03:12:20.487Z,3.90
2022-12-01T03:17:29.044Z,3.90
2022-12-01T03:22:36.698Z,4.00
2022-12-01T03:28:00.640Z,3.90
2022-12-01T03:33:09.187Z,3.80
2022-12-01T03:38:14.442Z,3.80
2022-12-01T03:43:21.063Z,3.80
2022-12-01T03:48:25.489Z,3.80
2022-12-01T03:53:32.790Z,3.80
2022-12-01T03:58:40.032Z,3.70
2022-12-01T04:03:45.665Z,3.70
2022-12-01T04:08:47.455Z,3.60
2022-12-01T04:13:52.232Z,3.60
2022-12-01T04:18:55.389Z,3.60
2022-12-01T04:23:57.144Z,3.60
2022-12-01T04:28:59.083Z,3.50
2022-12-01T04:34:02.969Z,3.50
2022-12-01T04:39:05.129Z,3.50
2022-12-01T04:44:06.803Z,3.40
2022-12-01T04:49:10.119Z,3.20
2022-12-01T04:54:12.022Z,3.20
2022-12-01T04:59:14.002Z,3.20
2022-12-01T05:04:17.080Z,3.20
2022-12-01T05:09:18.804Z,3.20
2022-12-01T05:14:20.673Z,3.10
2022-12-01T05:19:23.828Z,3.10
2022-12-01T05:24:25.780Z,3.20
2022-12-01T05:29:27.483Z,3.20
2022-12-01T05:34:30.589Z,3.20
2022-12-01T05:39:35.400Z,3.20
2022-12-01T05:44:37.202Z,3.20
2022-12-01T05:49:40.256Z,3.20
2022-12-01T05:54:43.124Z,3.20
2022-12-01T05:59:44.814Z,3.30
2022-12-01T06:04:47.865Z,3.30
2022-12-01T06:09:49.928Z,3.30
2022-12-01T06:14:51.824Z,3.20
2022-12-01T06:19:54.933Z,3.30
2022-12-01T06:24:56.631Z,3.40
2022-12-01T06:29:58.366Z,3.60
2022-12-01T06:35:01.536Z,3.40
2022-12-01T06:40:06.120Z,3.40
2022-12-01T06:45:08.959Z,3.70
2022-12-01T06:50:12.476Z,3.50
2022-12-01T06:55:14.629Z,3.80
2022-12-01T07:00:17.321Z,3.80
2022-12-01T07:05:20.958Z,3.60
2022-12-01T07:10:22.643Z,3.60
2022-12-01T07:15:24.426Z,3.30
2022-12-01T07:20:27.719Z,3.30
2022-12-01T07:25:29.515Z,3.30
2022-12-01T07:30:31.379Z,3.40
2022-12-01T07:35:34.544Z,3.40
2022-12-01T07:40:36.199Z,3.30
2022-12-01T07:45:37.870Z,3.20
2022-12-01T07:50:40.861Z,3.20
2022-12-01T07:55:48.042Z,3.20
2022-12-01T08:00:49.743Z,3.20
2022-12-01T08:05:57.521Z,3.20
2022-12-01T08:11:01.092Z,3.20
2022-12-01T08:16:03.865Z,3.00
2022-12-01T08:21:09.354Z,3.10
2022-12-01T08:26:13.253Z,3.20
2022-12-01T08:31:17.215Z,3.20
2022-12-01T08:36:21.343Z,3.10
2022-12-01T08:41:23.460Z,3.00
2022-12-01T08:46:25.775Z,3.00
2022-12-01T08:51:29.190Z,3.10
2022-12-01T08:56:33.132Z,3.10
2022-12-01T09:01:35.941Z,3.20
2022-12-01T09:06:41.397Z,3.20
2022-12-01T09:11:43.391Z,3.20
2022-12-01T09:16:51.645Z,3.30
2022-12-01T09:21:54.787Z,3.30
2022-12-01T09:26:57.998Z,3.60
2022-12-01T09:32:00.716Z,3.80
2022-12-01T09:37:03.864Z,4.00
2022-12-01T09:42:12.119Z,4.20
2022-12-01T09:47:18.572Z,4.30
2022-12-01T09:52:23.810Z,4.40
2022-12-01T09:57:30.612Z,4.40
2022-12-01T10:02:37.646Z,4.10
2022-12-01T10:07:47.059Z,4.00
2022-12-01T10:12:48.809Z,4.00
2022-12-01T10:18:12.626Z,4.00
2022-12-01T10:23:33.671Z,4.10
2022-12-01T10:28:57.433Z,4.20
2022-12-01T10:34:01.868Z,4.40
2022-12-01T10:39:06.891Z,4.60
2022-12-01T10:44:09.478Z,4.90
2022-12-01T10:49:13.249Z,5.20
2022-12-01T10:54:16.827Z,5.10
2022-12-01T10:59:32.655Z,5.20
2022-12-01T11:04:38.836Z,5.50
2022-12-01T11:09:42.404Z,5.20
2022-12-01T11:14:48.296Z,5.10
2022-12-01T11:19:50.328Z,4.90
2022-12-01T11:25:27.455Z,4.80
2022-12-01T11:30:38.085Z,4.70
2022-12-01T11:36:06.240Z,4.70
2022-12-01T11:41:42.950Z,4.70
2022-12-01T11:47:07.627Z,4.70
2022-12-01T11:52:28.282Z,4.70
2022-12-01T11:57:54.650Z,4.70
2022-12-01T12:09:53.073Z,4.70
2022-12-01T12:15:35.379Z,4.80
2022-12-01T12:21:02.706Z,4.80
2022-12-01T12:26:24.540Z,4.90
2022-12-01T12:38:29.844Z,4.80
2022-12-01T13:01:37.743Z,4.90
2022-12-01T13:06:43.580Z,4.90
2022-12-01T13:11:49.827Z,4.90
2022-12-01T13:16:55.656Z,4.90
2022-12-01T13:21:58.886Z,4.90
2022-12-01T13:27:05.810Z,4.90
2022-12-01T13:32:31.425Z,5.00
2022-12-01T13:37:37.535Z,4.90
2022-12-01T13:43:04.337Z,4.80
2022-12-01T13:54:41.769Z,4.60
2022-12-01T14:06:43.276Z,4.70
2022-12-01T14:11:57.264Z,5.00
2022-12-01T14:17:10.122Z,5.10
2022-12-01T14:34:17.342Z,5.10
2022-12-01T14:39:26.106Z,5.10
2022-12-01T14:44:33.292Z,5.00
2022-12-01T14:49:40.460Z,4.90
2022-12-01T14:55:09.534Z,4.80
2022-12-01T15:00:29.562Z,4.70
2022-12-01T15:06:00.649Z,4.70
2022-12-01T15:11:18.989Z,4.60
2022-12-01T15:17:01.114Z,4.50
2022-12-01T15:22:24.560Z,4.40
2022-12-01T15:34:01.487Z,4.30
2022-12-01T15:39:06.965Z,4.20
2022-12-01T15:44:20.763Z,4.10
2022-12-01T15:49:26.347Z,4.10
2022-12-01T15:54:28.092Z,4.10
2022-12-01T15:59:37.476Z,4.10
2022-12-01T16:04:39.605Z,4.00
2022-12-01T16:09:42.840Z,4.00
2022-12-01T16:15:07.360Z,4.00
2022-12-01T16:20:27.291Z,4.00
2022-12-01T16:25:56.700Z,3.90
2022-12-01T16:31:18.129Z,3.90
2022-12-01T16:41:43.446Z,3.90
2022-12-01T16:52:56.888Z,3.80
2022-12-01T16:57:58.611Z,3.70
2022-12-01T17:03:00.936Z,3.70
2022-12-01T17:08:04.815Z,3.70
2022-12-01T17:13:06.621Z,3.80
2022-12-01T17:18:08.519Z,3.80
2022-12-01T17:23:11.977Z,3.70
2022-12-01T17:28:13.777Z,3.70
2022-12-01T17:33:15.653Z,3.70
2022-12-01T17:38:18.822Z,3.70
2022-12-01T17:43:20.507Z,3.70
2022-12-01T17:48:22.259Z,3.60
2022-12-01T17:53:26.841Z,3.60
2022-12-01T17:58:30.267Z,3.60
2022-12-01T18:03:32.323Z,3.50
2022-12-01T18:08:36.213Z,3.60
2022-12-01T18:13:39.338Z,3.60
2022-12-01T18:18:41.408Z,3.60
2022-12-01T18:23:48.679Z,3.60
2022-12-01T18:28:53.967Z,3.60
2022-12-01T18:33:57.897Z,3.60
2022-12-01T18:39:01.982Z,3.60
2022-12-01T18:44:04.147Z,3.60
2022-12-01T18:49:06.042Z,3.70
2022-12-01T18:54:12.397Z,3.70
2022-12-01T18:59:14.144Z,3.70
2022-12-01T19:04:16.565Z,3.70
2022-12-01T19:09:19.680Z,3.70
2022-12-01T19:14:21.359Z,3.70
2022-12-01T19:19:23.417Z,3.70
2022-12-01T19:24:26.641Z,3.70
2022-12-01T19:29:28.369Z,3.70
2022-12-01T19:34:30.100Z,3.70
2022-12-01T19:39:33.378Z,3.70
2022-12-01T19:44:35.183Z,3.70
2022-12-01T19:49:37.394Z,3.70
2022-12-01T19:54:40.599Z,3.70
2022-12-01T19:59:42.361Z,3.70
2022-12-01T20:04:44.068Z,3.70
2022-12-01T20:09:50.100Z,3.70
2022-12-01T20:14:52.447Z,3.60
2022-12-01T20:19:54.310Z,3.70
2022-12-01T20:24:57.387Z,3.70
2022-12-01T20:29:59.277Z,3.70
2022-12-01T20:35:01.011Z,3.70
2022-12-01T20:40:05.081Z,3.60
2022-12-01T20:45:07.722Z,3.60
2022-12-01T20:50:10.060Z,3.60
2022-12-01T20:55:13.125Z,3.60
2022-12-01T21:00:16.013Z,3.50
2022-12-01T21:05:19.690Z,3.50
2022-12-01T21:10:23.255Z,3.60
2022-12-01T21:15:30.672Z,3.50
2022-12-01T21:20:35.265Z,3.50
2022-12-01T21:25:39.718Z,3.40
2022-12-01T21:30:41.622Z,3.40
2022-12-01T21:35:46.962Z,3.40
2022-12-01T21:40:50.219Z,3.40
2022-12-01T21:45:57.898Z,3.40
2022-12-01T21:51:07.020Z,3.40
2022-12-01T21:56:19.175Z,3.40
2022-12-01T22:01:26.759Z,3.40
2022-12-01T22:06:35.168Z,3.40
2022-12-01T22:11:38.382Z,3.30
2022-12-01T22:16:42.676Z,3.30
2022-12-01T22:21:45.386Z,3.30
2022-12-01T22:26:50.766Z,3.30
2022-12-01T22:32:40.291Z,3.30
2022-12-01T22:37:45.406Z,3.30
2022-12-01T22:42:58.677Z,3.30
2022-12-01T22:48:01.901Z,3.30
2022-12-01T22:53:12.511Z,3.30
2022-12-01T22:58:24.445Z,3.30
2022-12-01T23:03:26.445Z,3.20
2022-12-01T23:08:28.204Z,3.20
2022-12-01T23:13:31.410Z,3.10
2022-12-01T23:18:33.416Z,3.00
2022-12-01T23:23:36.838Z,3.10
2022-12-01T23:28:40.079Z,2.90
2022-12-01T23:33:41.765Z,2.80
2022-12-01T23:38:45.463Z,2.70
2022-12-01T23:43:49.046Z,2.70
2022-12-01T23:48:52.675Z,2.70
2022-12-01T23:53:55.890Z,2.80
2022-12-01T23:59:00.923Z,2.80
